createdAt,value
2023-11-27T00:02:26.948Z,99869.19
2023-11-27T00:07:29.940Z,99859.59
2023-11-27T00:12:33.039Z,99866.00
2023-11-27T00:17:37.407Z,99861.81
2023-11-27T00:22:40.605Z,99859.47
2023-11-27T00:27:44.349Z,99842.63
2023-11-27T00:32:48.939Z,99836.34
2023-11-27T00:37:52.703Z,99836.16
2023-11-27T00:42:55.688Z,99828.56
2023-11-27T00:48:00.610Z,99833.56
2023-11-27T00:53:03.587Z,99825.38
2023-11-27T00:58:07.928Z,99826.06
2023-11-27T01:03:12.794Z,99809.72
2023-11-27T01:08:16.056Z,99802.47
2023-11-27T01:13:19.138Z,99796.47
2023-11-27T01:18:23.472Z,99797.03
2023-11-27T01:23:26.423Z,99787.56
2023-11-27T01:28:29.360Z,99780.91
2023-11-27T01:33:34.715Z,99775.41
2023-11-27T01:38:38.038Z,99771.78
2023-11-27T01:43:42.029Z,99764.78
2023-11-27T01:48:46.431Z,99762.97
2023-11-27T01:53:51.216Z,99751.06
2023-11-27T01:58:56.408Z,99744.78
2023-11-27T02:04:01.313Z,99751.13
2023-11-27T02:09:04.506Z,99735.03
2023-11-27T02:14:07.442Z,99728.28
2023-11-27T02:19:12.047Z,99731.44
2023-11-27T02:24:16.745Z,99726.78
2023-11-27T02:29:19.747Z,99723.34
2023-11-27T02:34:22.746Z,99717.38
2023-11-27T02:39:27.493Z,99725.47
2023-11-27T02:44:30.417Z,99701.25
2023-11-27T02:49:33.435Z,99698.75
2023-11-27T02:54:37.734Z,99678.13
2023-11-27T02:59:40.789Z,99670.66
2023-11-27T03:04:43.744Z,99666.00
2023-11-27T03:09:49.669Z,99648.00
2023-11-27T03:14:52.708Z,99639.09
2023-11-27T03:19:55.615Z,99632.91
2023-11-27T03:25:00.399Z,99627.16
2023-11-27T03:30:05.699Z,99619.84
2023-11-27T03:35:10.877Z,99600.50
2023-11-27T03:40:15.533Z,99593.41
2023-11-27T03:45:18.517Z,99586.88
2023-11-27T03:50:21.442Z,99575.94
2023-11-27T03:55:26.763Z,99573.56
2023-11-27T04:00:29.818Z,99573.41
2023-11-27T04:05:32.742Z,99580.63
2023-11-27T04:10:37.426Z,99578.72
2023-11-27T04:15:40.885Z,99574.59
2023-11-27T04:20:44.996Z,99562.22
2023-11-27T04:25:49.388Z,99554.28
2023-11-27T04:30:52.324Z,99553.91
2023-11-27T04:35:55.512Z,99551.91
2023-11-27T04:40:59.773Z,99544.88
2023-11-27T04:46:02.909Z,99539.72
2023-11-27T04:51:06.453Z,99530.63
2023-11-27T04:56:11.860Z,99551.53
2023-11-27T05:01:14.806Z,99529.25
2023-11-27T05:06:17.756Z,99529.72
2023-11-27T05:11:22.420Z,99516.44
2023-11-27T05:16:25.391Z,99510.63
2023-11-27T05:21:28.571Z,99510.06
2023-11-27T05:26:32.877Z,99506.66
2023-11-27T05:31:36.005Z,99495.22
2023-11-27T05:36:39.046Z,99501.00
2023-11-27T05:41:43.847Z,99483.66
2023-11-27T05:46:46.881Z,99484.91
2023-11-27T05:51:50.039Z,99472.16
2023-11-27T05:56:55.557Z,99462.09
2023-11-27T06:01:59.239Z,99449.03
2023-11-27T06:07:02.330Z,99450.19
2023-11-27T06:12:07.340Z,99443.94
2023-11-27T06:17:10.400Z,99432.94
2023-11-27T06:22:13.684Z,99425.13
2023-11-27T06:27:18.068Z,99419.53
2023-11-27T06:32:22.555Z,99412.44
2023-11-27T06:37:25.790Z,99406.75
2023-11-27T06:42:31.336Z,99397.69
2023-11-27T06:47:34.327Z,99379.69
2023-11-27T06:52:37.514Z,99381.28
2023-11-27T06:57:42.738Z,99372.22
2023-11-27T07:02:46.267Z,99356.97
2023-11-27T07:07:49.272Z,99347.13
2023-11-27T07:12:53.820Z,99339.41
2023-11-27T07:18:09.484Z,99335.28
2023-11-27T07:23:19.601Z,99322.06
2023-11-27T07:28:24.374Z,99313.53
2023-11-27T07:33:27.626Z,99303.53
2023-11-27T07:38:30.533Z,99289.31
2023-11-27T07:43:35.604Z,99286.44
2023-11-27T07:48:39.404Z,99277.50
2023-11-27T07:53:42.600Z,99272.53
2023-11-27T07:58:46.948Z,99265.34
2023-11-27T08:03:50.111Z,99265.13
2023-11-27T08:08:55.180Z,99257.63
2023-11-27T08:13:59.597Z,99251.72
2023-11-27T08:19:02.570Z,99233.34
2023-11-27T08:24:07.240Z,99223.28
2023-11-27T08:29:16.335Z,99219.38
2023-11-27T08:34:20.931Z,99212.41
2023-11-27T08:39:25.555Z,99203.06
2023-11-27T08:44:30.320Z,99200.09
2023-11-27T08:49:33.376Z,99180.13
2023-11-27T08:54:36.490Z,99170.47
2023-11-27T08:59:40.974Z,99173.13
2023-11-27T09:04:44.032Z,99160.63
2023-11-27T09:09:46.976Z,99148.81
2023-11-27T09:14:52.442Z,99133.03
2023-11-27T09:19:56.509Z,99132.78
2023-11-27T09:24:59.545Z,99130.91
2023-11-27T09:30:04.260Z,99110.88
2023-11-27T09:35:09.916Z,99099.69
2023-11-27T09:40:14.870Z,99095.16
2023-11-27T09:45:20.117Z,99094.53
2023-11-27T09:50:23.838Z,99096.13
2023-11-27T09:55:28.495Z,99091.34
2023-11-27T10:00:35.135Z,99086.53
2023-11-27T10:05:39.154Z,99077.41
2023-11-27T10:10:45.416Z,99053.53
2023-11-27T10:15:50.790Z,99046.63
2023-11-27T10:20:53.898Z,99035.50
2023-11-27T10:26:00.320Z,99033.03
2023-11-27T10:31:05.341Z,99026.56
2023-11-27T10:36:10.853Z,99009.63
2023-11-27T10:41:15.516Z,98995.25
2023-11-27T10:46:20.760Z,98977.50
2023-11-27T10:51:24.515Z,98969.91
2023-11-27T10:56:31.859Z,98960.84
2023-11-27T11:01:40.426Z,98942.53
2023-11-27T11:06:47.393Z,98935.38
2023-11-27T11:11:51.290Z,98915.41
2023-11-27T11:17:09.199Z,98900.50
2023-11-27T11:22:24.994Z,98886.31
2023-11-27T11:27:36.803Z,98880.03
2023-11-27T11:32:41.471Z,98869.72
2023-11-27T11:37:50.329Z,98857.28
2023-11-27T11:42:53.596Z,98850.97
2023-11-27T11:48:01.189Z,98841.78
2023-11-27T11:53:27.636Z,98833.28
2023-11-27T11:58:31.143Z,98822.84
2023-11-27T12:03:37.224Z,98815.41
2023-11-27T12:08:46.004Z,98796.34
2023-11-27T12:13:48.998Z,98791.75
2023-11-27T12:18:55.813Z,98780.06
2023-11-27T12:23:59.311Z,98776.59
2023-11-27T12:29:02.644Z,98771.84
2023-11-27T12:34:07.013Z,98755.03
2023-11-27T12:39:12.312Z,98760.53
2023-11-27T12:44:17.508Z,98764.59
2023-11-27T12:49:23.700Z,98758.38
2023-11-27T12:54:32.722Z,98756.78
2023-11-27T12:59:40.980Z,98739.44
2023-11-27T13:04:45.501Z,98724.31
2023-11-27T13:09:48.439Z,98720.97
2023-11-27T13:14:51.483Z,98712.47
2023-11-27T13:19:57.115Z,98705.81
2023-11-27T13:25:00.700Z,98686.84
2023-11-27T13:30:03.955Z,98675.25
2023-11-27T13:35:09.261Z,98660.25
2023-11-27T13:40:13.634Z,98657.53
2023-11-27T13:45:17.596Z,98646.19
2023-11-27T13:50:22.168Z,98630.16
2023-11-27T13:55:25.194Z,98617.28
2023-11-27T14:00:28.962Z,98611.81
2023-11-27T14:05:38.600Z,98605.50
2023-11-27T14:16:14.757Z,98590.00
2023-11-27T14:21:47.103Z,98581.06
2023-11-27T14:27:21.367Z,98574.56
2023-11-27T14:32:25.837Z,98562.91
2023-11-27T14:37:31.605Z,98558.16
2023-11-27T14:42:34.724Z,98550.34
2023-11-27T14:47:39.271Z,98539.66
2023-11-27T14:52:44.458Z,98546.22
2023-11-27T14:57:49.189Z,98534.31
2023-11-27T15:02:56.342Z,98530.78
2023-11-27T15:08:00.846Z,98528.47
2023-11-27T15:13:03.958Z,98522.84
2023-11-27T15:18:08.500Z,98522.66
2023-11-27T15:23:11.798Z,98517.38
2023-11-27T15:28:15.967Z,98509.66
2023-11-27T15:33:20.423Z,98509.28
2023-11-27T15:38:25.925Z,98498.72
2023-11-27T15:43:29.387Z,98486.56
2023-11-27T15:48:33.857Z,98488.25
2023-11-27T15:53:36.845Z,98493.72
2023-11-27T15:58:40.255Z,98487.06
2023-11-27T16:03:44.653Z,98482.00
2023-11-27T16:08:47.810Z,98485.50
2023-11-27T16:13:54.683Z,98487.50
2023-11-27T16:19:02.541Z,98481.69
2023-11-27T16:24:09.862Z,98477.06
2023-11-27T16:29:12.913Z,98475.75
2023-11-27T16:34:17.338Z,98462.28
2023-11-27T16:39:21.645Z,98466.38
2023-11-27T16:44:24.556Z,98448.94
2023-11-27T16:49:28.872Z,98446.44
2023-11-27T16:54:33.775Z,98442.84
2023-11-27T16:59:36.713Z,98435.34
2023-11-27T17:04:41.113Z,98435.75
2023-11-27T17:09:44.144Z,98424.97
2023-11-27T17:14:47.500Z,98418.22
2023-11-27T17:19:51.969Z,98416.66
2023-11-27T17:24:54.974Z,98403.78
2023-11-27T17:29:57.948Z,98396.91
2023-11-27T17:35:09.648Z,98405.34
2023-11-27T17:40:14.306Z,98392.78
2023-11-27T17:45:18.037Z,98398.06
2023-11-27T17:50:24.162Z,98396.56
2023-11-27T17:55:34.057Z,98388.25
2023-11-27T18:00:43.247Z,98376.63
2023-11-27T18:05:47.560Z,98374.84
2023-11-27T18:10:51.078Z,98385.16
2023-11-27T18:15:54.027Z,98383.06
2023-11-27T18:20:58.369Z,98382.84
2023-11-27T18:26:05.240Z,98363.81
2023-11-27T18:31:09.355Z,98369.63
2023-11-27T18:36:14.445Z,98368.06
2023-11-27T18:41:18.893Z,98364.66
2023-11-27T18:46:23.457Z,98361.41
2023-11-27T18:51:27.723Z,98370.38
2023-11-27T18:56:30.740Z,98368.72
2023-11-27T19:01:33.829Z,98365.41
2023-11-27T19:06:38.952Z,98366.69
2023-11-27T19:11:41.836Z,98359.84
2023-11-27T19:16:45.913Z,98368.72
2023-11-27T19:21:51.753Z,98363.97
2023-11-27T19:26:54.727Z,98355.94
2023-11-27T19:31:57.769Z,98355.00
2023-11-27T19:37:04.840Z,98350.47
2023-11-27T19:42:09.865Z,98350.97
2023-11-27T19:47:14.782Z,98354.34
2023-11-27T19:52:19.272Z,98354.34
2023-11-27T19:57:22.190Z,98346.84
2023-11-27T20:02:26.172Z,98352.00
2023-11-27T20:07:30.611Z,98346.84
2023-11-27T20:12:33.574Z,98347.47
2023-11-27T20:17:36.584Z,98344.94
2023-11-27T20:22:41.491Z,98349.69
2023-11-27T20:27:45.447Z,98347.69
2023-11-27T20:32:48.521Z,98349.47
2023-11-27T20:37:55.353Z,98348.66
2023-11-27T20:43:00.241Z,98350.31
2023-11-27T20:48:04.234Z,98346.22
2023-11-27T20:53:09.065Z,98354.84
2023-11-27T20:58:14.006Z,98353.06
2023-11-27T21:03:20.197Z,98350.75
2023-11-27T21:08:25.348Z,98342.50
2023-11-27T21:13:28.527Z,98343.47
2023-11-27T21:18:31.869Z,98358.25
2023-11-27T21:23:36.285Z,98355.69
2023-11-27T21:28:42.596Z,98350.41
2023-11-27T21:33:46.278Z,98362.06
2023-11-27T21:38:51.768Z,98353.50
2023-11-27T21:43:54.913Z,98357.41
2023-11-27T21:48:58.043Z,98360.56
2023-11-27T21:54:02.463Z,98364.19
2023-11-27T21:59:05.844Z,98369.38
2023-11-27T22:04:09.129Z,98366.28
2023-11-27T22:09:13.648Z,98366.38
2023-11-27T22:14:16.623Z,98380.25
2023-11-27T22:19:19.530Z,98374.97
2023-11-27T22:24:23.957Z,98377.28
2023-11-27T22:29:28.939Z,98388.03
2023-11-27T22:34:33.079Z,98395.53
2023-11-27T22:39:37.458Z,98388.56
2023-11-27T22:44:40.495Z,98390.47
2023-11-27T22:49:43.462Z,98397.75
2023-11-27T22:54:47.947Z,98409.88
2023-11-27T22:59:50.912Z,98402.72
2023-11-27T23:04:53.963Z,98420.25
2023-11-27T23:09:59.083Z,98435.16
2023-11-27T23:15:02.065Z,98424.38
2023-11-27T23:20:06.142Z,98433.34
2023-11-27T23:25:10.744Z,98429.88
2023-11-27T23:30:14.527Z,98441.47
2023-11-27T23:35:18.219Z,98442.09
2023-11-27T23:40:22.874Z,98453.50
2023-11-27T23:45:26.663Z,98457.31
2023-11-27T23:50:29.586Z,98459.41
2023-11-27T23:55:33.973Z,98468.91
